Time;durP1;ratioP1;P1;durP2;ratioP2;P2;SDS_P1;SDS_P2;PMS_P1;PMS_P2;Temp;Humidity;BMP_temperature;BMP_pressure;BME280_temperature;BME280_humidity;BME280_pressure;Samples;Min_cycle;Max_cycle;Signal;HPM_P1;HPM_P2
2022/12/18 00:00:51;;;;;;;10.25;5.85;;;-8.00;98.00;;;;;;4996165;28;20582;-76
2022/12/18 00:03:18;;;;;;;5.22;3.80;;;-7.90;98.00;;;;;;4996298;28;20211;-75
2022/12/18 00:05:52;;;;;;;12.10;5.60;;;-8.10;98.00;;;;;;4996223;28;20676;-76
2022/12/18 00:08:20;;;;;;;7.88;5.25;;;-8.10;98.00;;;;;;4995985;28;20234;-76
2022/12/18 00:10:47;;;;;;;9.98;5.00;;;-8.20;98.00;;;;;;4996181;28;20218;-76
2022/12/18 00:13:14;;;;;;;10.20;6.35;;;-8.30;98.00;;;;;;4996677;28;20213;-75
2022/12/18 00:15:44;;;;;;;8.80;4.95;;;-8.30;98.00;;;;;;4997165;28;20554;-76
2022/12/18 00:18:11;;;;;;;7.32;4.90;;;-8.40;98.00;;;;;;4995860;28;20203;-76
2022/12/18 00:20:39;;;;;;;11.05;5.97;;;-8.30;98.00;;;;;;4995778;28;20224;-76
2022/12/18 00:23:07;;;;;;;7.20;5.82;;;-8.30;98.00;;;;;;4995677;28;20280;-76
2022/12/18 00:25:35;;;;;;;7.15;4.60;;;-8.40;98.00;;;;;;4995538;28;20204;-76
2022/12/18 00:28:02;;;;;;;8.90;4.50;;;-8.30;98.00;;;;;;4995536;28;20239;-75
2022/12/18 00:30:29;;;;;;;6.38;4.00;;;-8.30;98.00;;;;;;4995567;28;20668;-76
2022/12/18 00:32:58;;;;;;;4.38;4.07;;;-8.30;98.00;;;;;;4995662;28;20211;-76
2022/12/18 00:35:25;;;;;;;15.13;6.93;;;-8.40;98.00;;;;;;5010592;28;20539;-76
2022/12/18 00:37:53;;;;;;;3.65;3.33;;;-8.40;98.00;;;;;;4995614;28;20212;-76
2022/12/18 00:40:20;;;;;;;4.50;3.40;;;-8.50;98.00;;;;;;4995074;28;20606;-76
2022/12/18 00:42:55;;;;;;;9.55;6.25;;;-8.50;98.00;;;;;;4995025;28;20206;-76
2022/12/18 00:45:26;;;;;;;10.05;4.28;;;-8.30;98.00;;;;;;4995563;28;20280;-77
2022/12/18 00:47:53;;;;;;;7.60;4.80;;;-8.30;98.00;;;;;;4995572;28;20288;-75
2022/12/18 00:50:21;;;;;;;7.32;3.65;;;-8.50;98.00;;;;;;4995517;28;20270;-75
2022/12/18 00:52:48;;;;;;;6.88;4.15;;;-8.50;98.00;;;;;;4995089;28;20203;-75
2022/12/18 00:55:19;;;;;;;10.55;6.40;;;-8.50;98.00;;;;;;4995275;28;20209;-76
2022/12/18 00:57:46;;;;;;;7.88;5.65;;;-8.40;98.00;;;;;;4977607;28;20253;-76
2022/12/18 01:00:15;;;;;;;10.65;5.10;;;-8.40;98.00;;;;;;4995159;28;20229;-76
2022/12/18 01:02:42;;;;;;;6.28;4.93;;;-8.30;98.00;;;;;;4994928;28;20209;-76
2022/12/18 01:05:11;;;;;;;6.10;4.07;;;-8.40;98.00;;;;;;4995027;28;20209;-75
2022/12/18 01:07:39;;;;;;;6.18;4.10;;;-8.30;98.00;;;;;;4994918;28;20592;-76
2022/12/18 01:10:09;;;;;;;7.38;5.50;;;-8.30;98.00;;;;;;4994589;28;20230;-76
2022/12/18 01:12:36;;;;;;;14.25;5.53;;;-8.50;98.00;;;;;;4994910;28;20213;-76
2022/12/18 01:15:04;;;;;;;3.38;3.17;;;-8.40;98.00;;;;;;4994981;28;20232;-75
2022/12/18 01:17:33;;;;;;;5.53;3.40;;;-8.30;98.00;;;;;;4994866;28;20248;-76
2022/12/18 01:20:00;;;;;;;6.00;4.55;;;-8.30;98.00;;;;;;4994744;28;20212;-76
2022/12/18 01:22:27;;;;;;;11.85;4.32;;;-8.30;98.00;;;;;;4994557;28;20198;-76
2022/12/18 01:24:55;;;;;;;7.15;5.30;;;-8.30;98.00;;;;;;4994778;28;20200;-76
2022/12/18 01:27:23;;;;;;;6.10;5.75;;;-8.60;98.00;;;;;;4994643;28;20209;-76
2022/12/18 01:29:51;;;;;;;10.38;5.03;;;-8.60;98.00;;;;;;4994644;28;20222;-76
2022/12/18 01:32:18;;;;;;;5.85;5.07;;;-8.50;98.00;;;;;;4994413;28;20213;-76
2022/12/18 01:34:45;;;;;;;18.00;5.10;;;-8.60;98.00;;;;;;4994437;28;20211;-75
2022/12/18 01:37:12;;;;;;;9.13;6.22;;;-8.60;98.00;;;;;;5025675;28;20202;-76
2022/12/18 01:39:40;;;;;;;4.82;3.78;;;-8.50;98.00;;;;;;4994568;28;20225;-76
2022/12/18 01:42:13;;;;;;;8.40;5.22;;;-8.40;98.00;;;;;;4994558;28;20262;-76
2022/12/18 01:45:04;;;;;;;6.82;4.15;;;-8.50;98.00;;;;;;4994404;28;20203;-76
2022/12/18 01:47:37;;;;;;;8.95;4.38;;;-8.50;98.00;;;;;;4994067;28;20209;-76
2022/12/18 01:50:08;;;;;;;7.97;4.70;;;-8.40;98.00;;;;;;4994271;28;20222;-76
2022/12/18 01:52:39;;;;;;;4.22;4.00;;;-8.50;98.00;;;;;;4993718;28;20301;-76
2022/12/18 01:55:08;;;;;;;6.38;4.90;;;-8.60;98.00;;;;;;4994242;28;20213;-76
2022/12/18 01:57:37;;;;;;;16.65;5.65;;;-8.60;98.00;;;;;;4994259;28;20202;-77
2022/12/18 02:00:07;;;;;;;9.38;4.03;;;-8.80;98.00;;;;;;4995332;28;20209;-76
2022/12/18 02:02:37;;;;;;;8.10;4.63;;;-8.80;98.00;;;;;;4993855;28;20210;-76
2022/12/18 02:05:05;;;;;;;5.60;4.97;;;-8.80;98.00;;;;;;5024400;28;20584;-76
2022/12/18 02:07:41;;;;;;;11.07;4.80;;;-8.50;98.00;;;;;;4993692;28;20211;-76
2022/12/18 02:10:19;;;;;;;8.85;5.63;;;-8.50;98.00;;;;;;4993456;28;20234;-75
2022/12/18 02:12:53;;;;;;;9.98;5.15;;;-8.40;98.00;;;;;;4993642;28;20205;-76
2022/12/18 02:15:27;;;;;;;7.05;5.10;;;-8.50;98.00;;;;;;4993949;28;20212;-76
2022/12/18 02:17:58;;;;;;;7.53;4.15;;;-8.40;98.00;;;;;;4993554;28;20602;-76
2022/12/18 02:20:32;;;;;;;3.72;3.35;;;-8.40;98.00;;;;;;4993866;28;20203;-75
2022/12/18 02:23:12;;;;;;;5.85;4.85;;;-8.60;98.00;;;;;;4993626;28;20601;-75
2022/12/18 02:26:08;;;;;;;7.82;5.28;;;-8.40;98.00;;;;;;4993735;28;20217;-75
2022/12/18 02:28:43;;;;;;;4.57;3.30;;;-8.30;98.00;;;;;;4992918;28;20202;-76
2022/12/18 02:31:14;;;;;;;7.35;4.40;;;-8.30;98.00;;;;;;4993521;28;20208;-76
2022/12/18 02:33:45;;;;;;;12.20;4.68;;;-8.20;98.00;;;;;;5024604;28;20213;-75
2022/12/18 02:36:14;;;;;;;6.22;4.45;;;-8.20;98.00;;;;;;4993359;28;20210;-76
2022/12/18 02:38:43;;;;;;;11.93;4.80;;;-8.20;98.00;;;;;;4993053;28;20206;-76
2022/12/18 02:41:12;;;;;;;10.65;4.75;;;-8.30;98.00;;;;;;4993299;28;20267;-76
2022/12/18 02:43:41;;;;;;;3.75;3.38;;;-8.40;98.00;;;;;;4992942;28;20608;-76
2022/12/18 02:46:27;;;;;;;5.65;4.10;;;-8.30;98.00;;;;;;5024349;28;20215;-76
2022/12/18 02:49:01;;;;;;;2.25;2.15;;;-8.50;98.00;;;;;;4993054;28;20217;-76
2022/12/18 02:51:33;;;;;;;8.15;3.63;;;-8.40;98.00;;;;;;4992789;28;20252;-76
2022/12/18 02:54:07;;;;;;;7.18;3.65;;;-8.30;98.00;;;;;;4993042;28;20265;-76
2022/12/18 02:56:39;;;;;;;7.53;3.72;;;-8.40;98.00;;;;;;4992983;28;20209;-75
2022/12/18 02:59:14;;;;;;;4.50;4.00;;;-8.50;98.00;;;;;;4993128;28;20211;-76
2022/12/18 03:01:48;;;;;;;10.20;5.57;;;-8.30;98.00;;;;;;4992777;28;20699;-76
2022/12/18 03:04:21;;;;;;;3.35;3.15;;;-8.30;98.00;;;;;;5006829;28;20271;-76
2022/12/18 03:06:53;;;;;;;9.35;4.55;;;-8.30;98.00;;;;;;4993200;28;20613;-76
2022/12/18 03:09:23;;;;;;;3.22;2.67;;;-8.30;98.00;;;;;;4993073;28;20229;-76
2022/12/18 03:14:44;;;;;;;17.63;5.07;;;-8.40;98.00;;;;;;5019660;28;20209;-76
2022/12/18 03:17:15;;;;;;;2.60;2.25;;;-8.30;98.00;;;;;;4992855;28;20209;-76
2022/12/18 03:19:44;;;;;;;4.97;3.30;;;-8.30;98.00;;;;;;4992583;28;20208;-76
2022/12/18 03:22:12;;;;;;;3.60;2.88;;;-8.30;98.00;;;;;;4992136;28;20210;-76
2022/12/18 03:24:40;;;;;;;6.88;4.97;;;-8.20;98.00;;;;;;5023255;28;20221;-76
2022/12/18 03:27:12;;;;;;;3.03;2.83;;;-8.20;98.00;;;;;;4992580;28;20201;-75
2022/12/18 03:29:44;;;;;;;5.43;4.03;;;-8.20;98.00;;;;;;4992512;28;20705;-76
2022/12/18 03:32:16;;;;;;;6.55;3.60;;;-8.20;98.00;;;;;;4992529;28;20655;-75
2022/12/18 03:34:45;;;;;;;2.92;2.72;;;-8.20;98.00;;;;;;4992661;28;20209;-75
2022/12/18 03:37:12;;;;;;;6.13;3.55;;;-8.10;98.00;;;;;;4992706;28;20213;-76
2022/12/18 03:39:39;;;;;;;4.68;3.10;;;-8.10;98.00;;;;;;4993085;28;20201;-75
2022/12/18 03:42:11;;;;;;;7.22;3.78;;;-8.00;98.00;;;;;;5024805;28;20208;-76
2022/12/18 03:44:46;;;;;;;8.57;5.30;;;-8.20;98.00;;;;;;4992305;28;20731;-76
2022/12/18 03:47:17;;;;;;;5.60;3.80;;;-8.30;98.00;;;;;;4992574;28;20213;-76
2022/12/18 03:49:51;;;;;;;3.33;2.50;;;-8.40;98.00;;;;;;4992487;28;20276;-76
2022/12/18 03:52:24;;;;;;;2.85;2.53;;;-8.30;98.00;;;;;;4992469;28;20212;-76
2022/12/18 03:54:53;;;;;;;4.93;2.88;;;-8.50;98.00;;;;;;4992555;28;20265;-76
2022/12/18 03:57:22;;;;;;;7.00;4.30;;;-8.40;98.00;;;;;;4992365;28;20206;-76
2022/12/18 03:59:57;;;;;;;3.60;3.20;;;-8.40;98.00;;;;;;4992012;28;20284;-76
2022/12/18 04:02:25;;;;;;;4.97;4.68;;;-8.40;98.00;;;;;;4992483;28;20679;-75
2022/12/18 04:04:56;;;;;;;7.13;4.32;;;-8.50;98.00;;;;;;4992275;28;20242;-76
2022/12/18 04:07:24;;;;;;;11.43;4.88;;;-8.60;98.00;;;;;;4992491;28;20205;-76
2022/12/18 04:09:52;;;;;;;2.95;2.75;;;-8.60;98.00;;;;;;4992259;28;20206;-76
2022/12/18 04:12:19;;;;;;;6.47;3.97;;;-8.60;98.00;;;;;;4992287;28;20213;-76
2022/12/18 04:14:46;;;;;;;13.57;4.95;;;-8.60;98.00;;;;;;4992350;28;20207;-76
2022/12/18 04:17:14;;;;;;;2.95;2.78;;;-8.70;98.00;;;;;;4996124;28;20601;-76
2022/12/18 04:19:43;;;;;;;3.47;2.95;;;-8.80;98.00;;;;;;4996147;28;20226;-77
2022/12/18 04:22:11;;;;;;;4.70;4.35;;;-8.90;98.00;;;;;;4996174;28;20206;-76
2022/12/18 04:24:38;;;;;;;6.30;3.40;;;-8.80;98.00;;;;;;4996079;28;20256;-76
2022/12/18 04:27:05;;;;;;;6.57;3.28;;;-8.80;98.00;;;;;;5027118;28;20816;-76
2022/12/18 04:29:33;;;;;;;4.60;2.75;;;-8.80;98.00;;;;;;4995646;28;20205;-76
2022/12/18 04:32:00;;;;;;;3.10;2.90;;;-8.70;98.00;;;;;;4995384;28;20252;-76
2022/12/18 04:34:30;;;;;;;4.70;3.40;;;-8.70;98.00;;;;;;4995389;28;20567;-77
2022/12/18 04:36:57;;;;;;;7.50;2.53;;;-8.70;98.00;;;;;;4995608;28;20209;-76
2022/12/18 04:39:24;;;;;;;12.60;3.22;;;-8.70;98.00;;;;;;4995385;28;20618;-76
2022/12/18 04:41:51;;;;;;;5.78;2.22;;;-8.60;98.00;;;;;;4995321;28;20209;-76
2022/12/18 04:44:18;;;;;;;3.55;3.40;;;-8.50;98.00;;;;;;4995198;28;20206;-75
2022/12/18 04:46:46;;;;;;;10.57;2.72;;;-8.40;98.00;;;;;;4995373;28;20209;-76
2022/12/18 04:49:13;;;;;;;3.00;2.45;;;-8.50;98.00;;;;;;5026592;28;20207;-76
2022/12/18 04:51:41;;;;;;;6.03;4.00;;;-8.40;98.00;;;;;;4995204;28;20205;-76
2022/12/18 04:54:08;;;;;;;4.90;3.72;;;-8.60;98.00;;;;;;4995381;28;20672;-75
2022/12/18 04:56:35;;;;;;;6.97;3.42;;;-8.60;98.00;;;;;;4995338;28;20256;-76
2022/12/18 04:59:02;;;;;;;3.55;2.72;;;-8.60;98.00;;;;;;4995128;28;20226;-76
2022/12/18 05:01:29;;;;;;;2.53;2.15;;;-8.60;98.00;;;;;;4994853;28;20612;-76
2022/12/18 05:03:57;;;;;;;2.65;2.45;;;-8.40;98.00;;;;;;4995213;28;20206;-76
2022/12/18 05:06:24;;;;;;;2.72;2.03;;;-8.30;98.00;;;;;;4995133;28;20641;-76
2022/12/18 05:08:52;;;;;;;3.28;3.08;;;-8.30;98.00;;;;;;4995169;28;20221;-76
2022/12/18 05:11:19;;;;;;;7.05;3.72;;;-8.20;98.00;;;;;;4994997;28;20211;-76
2022/12/18 05:13:47;;;;;;;3.28;2.03;;;-8.20;98.00;;;;;;4995100;28;20644;-76
2022/12/18 05:16:15;;;;;;;3.75;2.88;;;-8.20;98.00;;;;;;4995331;28;20641;-75
2022/12/18 05:18:42;;;;;;;2.03;1.90;;;-8.10;98.00;;;;;;4995820;28;20205;-76
2022/12/18 05:21:09;;;;;;;3.28;2.67;;;-8.00;98.00;;;;;;4996644;28;20231;-76
2022/12/18 05:23:36;;;;;;;3.80;2.80;;;-7.70;98.00;;;;;;4994420;28;20702;-76
2022/12/18 05:26:07;;;;;;;4.80;3.70;;;-7.90;98.00;;;;;;4994389;28;20201;-76
2022/12/18 05:28:36;;;;;;;3.58;3.25;;;-7.80;98.00;;;;;;4993974;28;20576;-76
2022/12/18 05:31:06;;;;;;;3.22;2.63;;;-7.70;98.00;;;;;;4994427;28;20788;-76
2022/12/18 05:33:35;;;;;;;5.82;3.35;;;-7.70;98.00;;;;;;4994307;28;20210;-76
2022/12/18 05:36:06;;;;;;;2.35;2.15;;;-7.90;98.00;;;;;;5008404;28;20219;-76
2022/12/18 05:38:35;;;;;;;4.15;3.17;;;-7.90;98.00;;;;;;4993495;28;20260;-76
2022/12/18 05:41:02;;;;;;;2.95;2.20;;;-7.80;98.00;;;;;;4993432;28;20876;-76
2022/12/18 05:43:30;;;;;;;3.47;2.50;;;-7.70;98.00;;;;;;4993463;28;20202;-76
2022/12/18 05:45:58;;;;;;;3.97;1.83;;;-7.70;98.00;;;;;;4993695;28;20213;-76
2022/12/18 05:48:25;;;;;;;3.97;2.90;;;-7.80;98.00;;;;;;4993423;28;20201;-76
2022/12/18 05:50:53;;;;;;;2.25;1.95;;;-7.70;98.00;;;;;;4993476;28;20230;-76
2022/12/18 05:53:21;;;;;;;6.25;2.78;;;-7.70;98.00;;;;;;4993415;28;20216;-76
2022/12/18 05:55:48;;;;;;;8.15;4.20;;;-7.70;98.00;;;;;;4993382;28;20194;-76
2022/12/18 05:58:16;;;;;;;3.47;2.72;;;-7.50;98.00;;;;;;4993446;28;20201;-76
2022/12/18 06:00:46;;;;;;;3.97;2.47;;;-7.60;98.00;;;;;;4993611;28;20221;-76
2022/12/18 06:03:14;;;;;;;2.72;2.13;;;-7.50;98.00;;;;;;4993398;28;20211;-76
2022/12/18 06:05:43;;;;;;;3.35;3.15;;;-7.50;98.00;;;;;;4994453;28;20202;-76
2022/12/18 06:08:11;;;;;;;7.43;2.90;;;-7.50;98.00;;;;;;4994433;28;20205;-76
2022/12/18 06:10:39;;;;;;;4.75;3.25;;;-7.50;98.00;;;;;;4994724;28;20265;-76
2022/12/18 06:13:07;;;;;;;1.98;1.88;;;-7.40;98.00;;;;;;4994322;28;20210;-76
2022/12/18 06:15:37;;;;;;;6.97;3.08;;;-7.40;98.00;;;;;;4994718;28;20221;-76
2022/12/18 06:18:06;;;;;;;4.57;3.63;;;-7.40;98.00;;;;;;4999174;28;20246;-76
2022/12/18 06:20:36;;;;;;;4.55;2.88;;;-7.40;98.00;;;;;;5013420;28;20234;-75
2022/12/18 06:23:04;;;;;;;4.57;3.33;;;-7.40;98.00;;;;;;5014019;28;20861;-75
2022/12/18 06:25:31;;;;;;;7.35;3.35;;;-7.40;98.00;;;;;;5028627;28;20199;-76
2022/12/18 06:27:58;;;;;;;6.43;3.95;;;-7.30;98.00;;;;;;5013890;28;20552;-76
2022/12/18 06:30:25;;;;;;;3.15;2.95;;;-7.30;98.00;;;;;;5013712;28;20213;-75
2022/12/18 06:32:53;;;;;;;7.28;4.43;;;-7.20;98.00;;;;;;5006712;28;20199;-76
2022/12/18 06:35:22;;;;;;;2.22;2.03;;;-7.20;98.00;;;;;;4998663;28;20210;-76
2022/12/18 06:37:49;;;;;;;8.93;3.20;;;-7.30;98.00;;;;;;4998690;28;20199;-76
2022/12/18 06:40:17;;;;;;;2.70;2.50;;;-7.30;98.00;;;;;;4992604;28;20221;-76
2022/12/18 06:42:44;;;;;;;3.50;3.13;;;-7.30;98.00;;;;;;4991472;28;20548;-76
2022/12/18 06:45:19;;;;;;;2.50;2.30;;;-7.40;98.00;;;;;;4991432;28;20215;-76
2022/12/18 06:47:46;;;;;;;2.70;2.35;;;-7.40;98.00;;;;;;4991594;28;20193;-76
2022/12/18 06:50:17;;;;;;;7.78;3.90;;;-7.40;98.00;;;;;;5006376;28;20203;-73
2022/12/18 06:52:46;;;;;;;5.40;3.53;;;-7.40;98.00;;;;;;4992204;28;20210;-73
2022/12/18 06:55:13;;;;;;;3.78;3.17;;;-7.30;98.00;;;;;;4974334;28;20300;-73
2022/12/18 06:57:40;;;;;;;18.08;4.40;;;-7.20;98.00;;;;;;5007175;28;20211;-73
2022/12/18 07:00:08;;;;;;;2.78;2.00;;;-7.10;98.00;;;;;;4991929;28;20205;-73
2022/12/18 07:02:36;;;;;;;6.05;5.20;;;-7.10;98.00;;;;;;4991881;28;20208;-73
2022/12/18 07:05:04;;;;;;;3.78;3.30;;;-7.10;98.00;;;;;;5007175;28;20206;-73
2022/12/18 07:07:31;;;;;;;4.45;4.03;;;-6.90;98.00;;;;;;4992047;28;20219;-73
2022/12/18 07:10:00;;;;;;;3.53;2.00;;;-6.80;98.00;;;;;;5006929;28;20671;-73
2022/12/18 07:12:28;;;;;;;10.40;4.25;;;-6.70;98.00;;;;;;4991915;28;20223;-73
2022/12/18 07:14:56;;;;;;;3.35;3.15;;;-6.90;98.00;;;;;;4991841;28;20242;-73
2022/12/18 07:17:23;;;;;;;4.03;2.83;;;-7.00;98.00;;;;;;4992151;28;20206;-73
2022/12/18 07:19:50;;;;;;;9.07;3.63;;;-7.10;98.00;;;;;;4991981;28;20689;-73
2022/12/18 07:22:17;;;;;;;9.43;5.22;;;-7.10;98.00;;;;;;5006611;28;20226;-73
2022/12/18 07:24:44;;;;;;;5.38;3.05;;;-7.00;98.00;;;;;;5006864;28;20215;-73
2022/12/18 07:27:13;;;;;;;5.43;3.35;;;-7.00;98.00;;;;;;4991978;28;20657;-73
2022/12/18 07:29:41;;;;;;;3.08;2.88;;;-7.00;98.00;;;;;;4991847;28;20677;-73
2022/12/18 07:32:08;;;;;;;4.95;4.68;;;-6.80;98.00;;;;;;5006886;28;20691;-73
2022/12/18 07:34:35;;;;;;;4.22;3.47;;;-6.80;98.00;;;;;;4991660;28;20207;-73
2022/12/18 07:37:02;;;;;;;4.35;3.90;;;-6.70;98.00;;;;;;4991941;28;20213;-73
2022/12/18 07:39:29;;;;;;;6.10;3.53;;;-6.70;98.00;;;;;;5006624;28;20196;-74
2022/12/18 07:44:44;;;;;;;3.22;3.05;;;-6.70;98.00;;;;;;4991883;28;20209;-74
2022/12/18 07:47:12;;;;;;;3.33;2.25;;;-6.50;98.00;;;;;;4991808;28;20571;-74
2022/12/18 07:49:39;;;;;;;4.50;3.78;;;-6.50;98.00;;;;;;4991696;28;20208;-73
2022/12/18 07:52:06;;;;;;;3.35;2.80;;;-6.40;98.00;;;;;;4995783;28;20608;-72
2022/12/18 07:54:33;;;;;;;6.47;2.55;;;-6.20;98.00;;;;;;4995495;28;20203;-73
2022/12/18 07:57:01;;;;;;;3.90;3.08;;;-6.10;98.00;;;;;;4995786;28;20209;-74
2022/12/18 07:59:28;;;;;;;7.45;3.85;;;-6.00;98.00;;;;;;4995761;28;20206;-73
2022/12/18 08:01:57;;;;;;;3.80;3.22;;;-6.00;98.00;;;;;;4994444;28;20224;-74
2022/12/18 08:04:24;;;;;;;10.27;5.05;;;-5.90;98.00;;;;;;4995409;28;20206;-73
2022/12/18 08:06:51;;;;;;;4.40;3.55;;;-5.90;98.00;;;;;;4995742;28;20212;-74
2022/12/18 08:09:18;;;;;;;2.97;2.83;;;-5.90;98.00;;;;;;4995491;28;20613;-73
2022/12/18 08:11:45;;;;;;;3.50;2.75;;;-5.90;98.00;;;;;;5010318;28;20212;-73
2022/12/18 08:14:13;;;;;;;4.90;2.95;;;-5.70;98.00;;;;;;4995358;28;20574;-72
2022/12/18 08:16:40;;;;;;;4.63;2.67;;;-5.70;98.00;;;;;;4995201;28;20207;-74
2022/12/18 08:19:11;;;;;;;3.80;3.60;;;-5.60;98.00;;;;;;4995160;28;20582;-73
2022/12/18 08:21:41;;;;;;;5.75;4.57;;;-5.60;98.00;;;;;;4995237;28;20228;-73
2022/12/18 08:24:10;;;;;;;11.68;5.18;;;-5.50;98.00;;;;;;5009698;28;20262;-73
2022/12/18 08:26:38;;;;;;;3.25;3.05;;;-5.50;98.00;;;;;;4994951;28;20271;-73
2022/12/18 08:29:05;;;;;;;4.82;4.07;;;-5.60;98.00;;;;;;5009884;28;20287;-72
2022/12/18 08:31:32;;;;;;;2.20;2.00;;;-5.60;98.00;;;;;;4994958;28;20211;-74
2022/12/18 08:33:59;;;;;;;5.00;3.03;;;-5.60;98.00;;;;;;4994834;28;20615;-72
2022/12/18 08:36:28;;;;;;;7.18;4.40;;;-5.60;98.00;;;;;;4994890;28;20512;-73
2022/12/18 08:38:55;;;;;;;3.30;3.10;;;-5.50;98.00;;;;;;4994811;28;20239;-74
2022/12/18 08:41:23;;;;;;;1.88;1.77;;;-5.50;98.00;;;;;;4994787;28;20277;-72
2022/12/18 08:46:38;;;;;;;2.85;2.67;;;-5.20;98.00;;;;;;4994887;28;20916;-74
2022/12/18 08:49:06;;;;;;;3.53;2.78;;;-5.00;98.00;;;;;;4994824;28;20212;-73
2022/12/18 08:51:36;;;;;;;4.38;2.72;;;-4.90;98.00;;;;;;4977596;28;20552;-74
2022/12/18 08:54:04;;;;;;;7.65;3.03;;;-4.80;98.00;;;;;;4994805;28;20208;-73
2022/12/18 08:56:32;;;;;;;5.43;3.17;;;-4.70;98.00;;;;;;4994520;28;20207;-74
2022/12/18 08:58:59;;;;;;;2.88;2.67;;;-4.80;98.00;;;;;;4994634;28;20197;-73
2022/12/18 09:01:26;;;;;;;3.75;2.65;;;-4.60;98.00;;;;;;4993825;28;20228;-74
2022/12/18 09:03:53;;;;;;;3.95;3.22;;;-4.60;98.00;;;;;;4994118;28;20219;-73
2022/12/18 09:06:22;;;;;;;1.83;1.73;;;-4.50;98.00;;;;;;4994539;28;20212;-73
2022/12/18 09:08:51;;;;;;;4.10;2.45;;;-4.50;98.00;;;;;;4994119;28;20201;-73
2022/12/18 09:11:25;;;;;;;5.97;3.75;;;-4.50;98.00;;;;;;4994263;28;20214;-73
2022/12/18 09:13:53;;;;;;;3.55;2.42;;;-4.50;98.00;;;;;;4976759;28;20658;-73
2022/12/18 09:16:21;;;;;;;6.35;3.47;;;-4.40;98.00;;;;;;4994242;28;20616;-74
2022/12/18 09:18:48;;;;;;;5.57;4.00;;;-4.40;98.00;;;;;;4994239;28;20636;-73
2022/12/18 09:21:16;;;;;;;3.75;2.75;;;-4.40;98.00;;;;;;4993986;28;20278;-72
2022/12/18 09:23:49;;;;;;;3.38;2.97;;;-4.40;98.00;;;;;;4993964;28;20210;-74
2022/12/18 09:26:18;;;;;;;5.22;3.53;;;-4.30;98.00;;;;;;4994428;28;20213;-74
2022/12/18 09:28:45;;;;;;;8.98;4.03;;;-4.30;98.00;;;;;;4993992;28;20553;-74
2022/12/18 09:31:16;;;;;;;4.32;3.33;;;-4.30;98.00;;;;;;4993987;28;20726;-74
2022/12/18 09:33:46;;;;;;;2.97;2.50;;;-4.10;98.00;;;;;;4993707;28;20212;-73
2022/12/18 09:36:16;;;;;;;2.90;2.47;;;-4.10;98.00;;;;;;4993857;28;20209;-72
2022/12/18 09:38:44;;;;;;;2.88;2.67;;;-4.00;98.00;;;;;;5008603;28;20204;-73
2022/12/18 09:41:26;;;;;;;5.32;4.03;;;-3.90;98.00;;;;;;4993892;28;20283;-73
2022/12/18 09:43:58;;;;;;;2.47;1.80;;;-3.80;98.00;;;;;;4993859;28;20210;-73
2022/12/18 09:46:30;;;;;;;3.25;2.00;;;-3.70;98.00;;;;;;4993912;28;20357;-73
2022/12/18 09:49:02;;;;;;;8.40;3.63;;;-3.60;98.00;;;;;;4993808;28;20202;-74
2022/12/18 09:51:33;;;;;;;5.90;2.85;;;-3.50;98.00;;;;;;4993611;28;20201;-74
2022/12/18 09:54:06;;;;;;;4.68;2.95;;;-3.40;98.00;;;;;;4993552;28;20575;-74
2022/12/18 09:56:38;;;;;;;3.25;2.75;;;-3.30;98.00;;;;;;4993604;28;20201;-74
2022/12/18 09:59:06;;;;;;;2.70;2.50;;;-3.20;98.00;;;;;;4993283;28;20664;-74
2022/12/18 10:01:34;;;;;;;2.95;2.60;;;-3.10;98.00;;;;;;4993305;28;20225;-74
2022/12/18 10:04:01;;;;;;;4.15;2.75;;;-3.00;98.00;;;;;;4993463;28;20201;-74
2022/12/18 10:06:33;;;;;;;4.00;2.72;;;-2.90;98.00;;;;;;5008252;28;20205;-73
2022/12/18 10:09:07;;;;;;;3.53;2.80;;;-2.90;98.00;;;;;;4993287;28;20197;-72
2022/12/18 10:11:44;;;;;;;5.13;3.17;;;-2.80;98.00;;;;;;4993157;28;20200;-74
2022/12/18 10:14:19;;;;;;;2.92;2.72;;;-2.70;98.00;;;;;;4993099;28;20224;-74
2022/12/18 10:16:59;;;;;;;2.20;2.03;;;-2.60;98.00;;;;;;4993221;28;20213;-74
2022/12/18 10:19:39;;;;;;;11.65;3.45;;;-2.50;98.00;;;;;;4992896;28;20220;-72
2022/12/18 10:22:17;;;;;;;1.73;1.67;;;-2.40;98.00;;;;;;4992968;28;20481;-74
2022/12/18 10:24:50;;;;;;;5.03;3.03;;;-2.30;98.00;;;;;;4992920;28;20205;-74
2022/12/18 10:27:24;;;;;;;2.78;1.75;;;-2.30;98.00;;;;;;5007947;28;20206;-73
2022/12/18 10:29:51;;;;;;;3.15;2.33;;;-2.30;98.00;;;;;;4992986;28;20555;-73
2022/12/18 10:32:21;;;;;;;3.78;3.13;;;-2.30;98.00;;;;;;4992890;28;20205;-73
2022/12/18 10:34:49;;;;;;;2.20;2.10;;;-2.20;98.00;;;;;;4992629;28;20202;-73
2022/12/18 10:37:19;;;;;;;1.80;1.75;;;-2.10;98.00;;;;;;4992943;28;20209;-73
2022/12/18 10:39:46;;;;;;;9.95;3.53;;;-2.00;98.00;;;;;;4993063;28;20605;-73
2022/12/18 10:42:20;;;;;;;8.55;3.17;;;-1.90;98.00;;;;;;4992620;28;20221;-73
2022/12/18 10:45:01;;;;;;;4.60;3.40;;;-1.90;98.00;;;;;;4992668;28;20815;-73
2022/12/18 10:47:34;;;;;;;2.88;2.15;;;-1.80;98.00;;;;;;4992578;28;20205;-73
2022/12/18 10:50:02;;;;;;;1.83;1.70;;;-1.60;98.00;;;;;;4992642;28;20205;-73
2022/12/18 10:52:34;;;;;;;2.35;2.25;;;-1.60;98.00;;;;;;4992449;28;20205;-73
2022/12/18 10:55:16;;;;;;;4.53;3.65;;;-1.50;98.00;;;;;;4992476;28;20205;-73
2022/12/18 10:57:44;;;;;;;2.60;2.10;;;-1.40;98.00;;;;;;4992441;28;20578;-73
2022/12/18 11:00:28;;;;;;;5.82;3.65;;;-1.30;98.00;;;;;;4992297;28;20201;-74
2022/12/18 11:02:56;;;;;;;3.13;2.90;;;-1.20;98.00;;;;;;4992394;28;20280;-73
2022/12/18 11:05:31;;;;;;;2.72;2.45;;;-1.10;98.00;;;;;;4992167;28;20288;-74
2022/12/18 11:07:59;;;;;;;4.40;3.28;;;-1.00;98.00;;;;;;4992324;28;20205;-73
2022/12/18 11:10:31;;;;;;;3.53;2.47;;;-0.90;98.00;;;;;;4992168;28;20216;-74
2022/12/18 11:13:11;;;;;;;7.43;3.38;;;-0.80;98.00;;;;;;5007116;28;20207;-74
2022/12/18 11:15:42;;;;;;;5.50;3.30;;;-0.60;98.00;;;;;;4992448;28;20300;-75
2022/12/18 11:18:18;;;;;;;3.00;2.80;;;-0.50;98.00;;;;;;4992109;28;20543;-74
2022/12/18 11:20:53;;;;;;;3.73;1.93;;;-0.30;98.00;;;;;;4992167;28;20207;-73
2022/12/18 11:23:23;;;;;;;5.00;3.23;;;-0.10;98.00;;;;;;4991987;28;20494;-74
2022/12/18 11:25:55;;;;;;;2.73;2.43;;;0.00;98.00;;;;;;4991849;28;20500;-74
2022/12/18 11:28:38;;;;;;;8.20;3.33;;;0.20;98.00;;;;;;5006834;28;20471;-74
2022/12/18 11:31:27;;;;;;;3.33;2.60;;;0.20;98.00;;;;;;4974879;28;20510;-74
2022/12/18 11:34:00;;;;;;;5.37;3.47;;;0.20;98.00;;;;;;4992000;28;20460;-74
2022/12/18 11:36:31;;;;;;;2.47;1.83;;;0.30;98.00;;;;;;4991998;28;20471;-75
2022/12/18 11:39:03;;;;;;;9.80;4.40;;;0.30;98.00;;;;;;4991998;28;20991;-73
2022/12/18 11:44:27;;;;;;;5.60;2.67;;;0.20;98.00;;;;;;4974235;28;20461;-74
2022/12/18 11:47:00;;;;;;;7.53;3.00;;;0.20;98.00;;;;;;4991958;28;20466;-74
2022/12/18 11:49:34;;;;;;;2.70;2.47;;;0.30;98.00;;;;;;5006259;28;20857;-74
2022/12/18 11:52:11;;;;;;;4.07;2.70;;;0.50;98.00;;;;;;4991948;28;20485;-74
2022/12/18 11:54:38;;;;;;;4.30;2.67;;;0.70;98.00;;;;;;4991837;28;21066;-73
2022/12/18 11:57:15;;;;;;;3.20;2.90;;;0.70;98.00;;;;;;4991705;28;20462;-73
2022/12/18 11:59:56;;;;;;;5.70;3.43;;;0.70;98.00;;;;;;4991675;28;20595;-74
2022/12/18 12:02:52;;;;;;;4.17;2.57;;;0.70;98.00;;;;;;4991601;28;20495;-74
2022/12/18 12:05:37;;;;;;;5.93;4.03;;;0.70;98.00;;;;;;4987886;28;20513;-74
2022/12/18 12:08:10;;;;;;;4.70;2.93;;;0.70;98.00;;;;;;4974631;28;20463;-74
2022/12/18 12:10:50;;;;;;;4.17;2.60;;;0.70;98.00;;;;;;4991558;28;20463;-74
2022/12/18 12:13:32;;;;;;;3.90;2.73;;;0.80;98.00;;;;;;4992018;28;20821;-73
2022/12/18 12:16:12;;;;;;;7.07;2.90;;;0.90;98.00;;;;;;5005813;28;20475;-73
2022/12/18 12:18:53;;;;;;;5.80;3.00;;;0.90;98.00;;;;;;4991426;28;20474;-75
2022/12/18 12:21:29;;;;;;;5.97;3.60;;;1.00;98.00;;;;;;5006966;28;20488;-74
2022/12/18 12:24:05;;;;;;;2.80;2.33;;;1.20;98.00;;;;;;4991706;28;20492;-74
2022/12/18 12:26:38;;;;;;;6.73;3.57;;;1.30;98.00;;;;;;4991397;28;20912;-74
2022/12/18 12:29:22;;;;;;;2.63;2.23;;;1.40;98.00;;;;;;4991688;28;20513;-74
2022/12/18 12:32:07;;;;;;;3.93;2.00;;;1.50;98.00;;;;;;5005142;28;20475;-75
2022/12/18 12:34:43;;;;;;;5.67;4.07;;;1.60;98.00;;;;;;4991201;28;20478;-74
2022/12/18 12:37:23;;;;;;;4.60;3.40;;;1.80;98.00;;;;;;4992273;28;20462;-74
2022/12/18 12:39:52;;;;;;;13.93;4.13;;;1.80;98.00;;;;;;4994987;28;20466;-75
2022/12/18 12:45:22;;;;;;;16.13;3.43;;;2.00;98.00;;;;;;4995279;28;20451;-74
2022/12/18 12:47:51;;;;;;;8.00;4.17;;;2.10;98.00;;;;;;5009253;28;20463;-74
2022/12/18 12:50:21;;;;;;;8.50;3.87;;;2.10;98.00;;;;;;4994730;28;20468;-75
2022/12/18 12:52:52;;;;;;;4.70;2.90;;;2.10;98.00;;;;;;4994856;28;20968;-74
2022/12/18 12:55:22;;;;;;;4.97;2.80;;;2.00;98.00;;;;;;4994629;28;20467;-74
2022/12/18 12:57:59;;;;;;;6.20;3.37;;;2.00;98.00;;;;;;4994774;28;20933;-74
2022/12/18 13:00:27;;;;;;;6.80;4.30;;;1.90;98.00;;;;;;5009459;28;20880;-74
2022/12/18 13:03:04;;;;;;;5.37;2.43;;;1.80;98.00;;;;;;4994486;28;20772;-74
2022/12/18 13:05:40;;;;;;;4.17;3.10;;;1.70;98.00;;;;;;4994596;28;20474;-74
2022/12/18 13:08:10;;;;;;;7.23;3.33;;;1.70;98.00;;;;;;4994629;28;20498;-74
2022/12/18 13:10:38;;;;;;;7.57;3.47;;;1.60;98.00;;;;;;4994568;28;20858;-74
2022/12/18 13:13:06;;;;;;;7.00;2.90;;;1.40;98.00;;;;;;4994355;28;20986;-74
2022/12/18 13:15:40;;;;;;;3.60;2.93;;;1.40;98.00;;;;;;4994453;28;20710;-74
2022/12/18 13:18:16;;;;;;;7.10;2.73;;;1.40;98.00;;;;;;4994758;28;20533;-74